createdAt,value
2019-01-24T00:00:51.768Z,82.04
2019-01-24T00:03:18.323Z,82.03
2019-01-24T00:05:45.112Z,81.47
2019-01-24T00:08:11.507Z,81.52
2019-01-24T00:10:37.861Z,80.70
2019-01-24T00:13:04.783Z,80.83
2019-01-24T00:15:31.256Z,81.40
2019-01-24T00:17:57.754Z,81.30
2019-01-24T00:20:24.248Z,81.46
2019-01-24T00:22:50.678Z,81.03
2019-01-24T00:25:17.065Z,81.15
2019-01-24T00:27:43.436Z,81.60
2019-01-24T00:30:13.083Z,81.70
2019-01-24T00:32:39.554Z,81.72
2019-01-24T00:35:07.140Z,81.25
2019-01-24T00:37:33.514Z,81.15
2019-01-24T00:40:00.018Z,80.75
2019-01-24T00:42:26.550Z,80.61
2019-01-24T00:44:53.058Z,80.25
2019-01-24T00:47:19.810Z,80.43
2019-01-24T00:49:46.038Z,80.27
2019-01-24T00:52:12.280Z,80.48
2019-01-24T00:54:38.655Z,80.73
2019-01-24T00:57:05.236Z,80.84
2019-01-24T00:59:31.701Z,80.48
2019-01-24T01:01:58.004Z,80.28
2019-01-24T01:04:29.678Z,80.75
2019-01-24T01:06:52.508Z,80.49
2019-01-24T01:09:18.993Z,80.79
2019-01-24T01:11:45.394Z,80.65
2019-01-24T01:14:11.708Z,80.80
2019-01-24T01:16:38.148Z,80.45
2019-01-24T01:19:04.621Z,82.38
2019-01-24T01:21:31.068Z,81.74
2019-01-24T01:23:57.445Z,81.35
2019-01-24T01:26:23.805Z,81.07
2019-01-24T01:28:50.237Z,79.99
2019-01-24T01:31:16.555Z,80.53
2019-01-24T01:33:42.856Z,79.80
2019-01-24T01:36:09.230Z,79.99
2019-01-24T01:38:35.771Z,79.76
2019-01-24T01:41:02.490Z,79.90
2019-01-24T01:43:29.001Z,79.19
2019-01-24T01:45:55.426Z,79.90
2019-01-24T01:48:21.701Z,79.64
2019-01-24T01:50:48.298Z,79.75
2019-01-24T01:53:14.541Z,79.87
2019-01-24T01:55:40.872Z,79.83
2019-01-24T01:58:07.524Z,79.69
2019-01-24T02:00:34.153Z,80.03
2019-01-24T02:03:00.585Z,79.87
2019-01-24T02:05:26.896Z,79.59
2019-01-24T02:07:53.309Z,79.65
2019-01-24T02:10:22.247Z,79.92
2019-01-24T02:12:48.927Z,80.04
2019-01-24T02:15:16.292Z,79.77
2019-01-24T02:17:43.171Z,79.50
2019-01-24T02:20:13.298Z,80.12
2019-01-24T02:25:16.728Z,80.03
2019-01-24T02:27:43.202Z,80.48
2019-01-24T02:30:13.188Z,80.03
2019-01-24T02:32:39.464Z,80.17
2019-01-24T02:35:07.773Z,79.45
2019-01-24T02:37:34.106Z,78.62
2019-01-24T02:40:01.641Z,78.66
2019-01-24T02:42:28.117Z,78.40
2019-01-24T02:44:54.524Z,79.01
2019-01-24T02:47:20.956Z,79.72
2019-01-24T02:49:47.447Z,79.10
2019-01-24T02:52:14.618Z,78.84
2019-01-24T02:54:40.908Z,78.98
2019-01-24T02:57:07.294Z,78.52
2019-01-24T02:59:33.540Z,78.89
2019-01-24T03:02:00.009Z,78.95
2019-01-24T03:04:26.477Z,78.90
2019-01-24T03:06:55.903Z,79.25
2019-01-24T03:09:23.297Z,79.13
2019-01-24T03:11:49.834Z,79.09
2019-01-24T03:17:16.353Z,79.45
2019-01-24T03:19:43.342Z,79.44
2019-01-24T03:22:09.815Z,78.90
2019-01-24T03:24:36.233Z,78.60
2019-01-24T03:27:03.419Z,79.05
2019-01-24T03:29:29.668Z,79.16
2019-01-24T03:31:56.172Z,79.59
2019-01-24T03:34:22.387Z,79.57
2019-01-24T03:36:51.711Z,79.16
2019-01-24T03:39:17.954Z,79.16
2019-01-24T03:41:44.313Z,78.70
2019-01-24T03:44:10.648Z,78.31
2019-01-24T03:46:37.011Z,77.77
2019-01-24T03:49:05.853Z,77.56
2019-01-24T03:51:32.083Z,77.61
2019-01-24T03:53:58.279Z,77.89
2019-01-24T03:56:24.510Z,77.68
2019-01-24T03:58:51.151Z,78.06
2019-01-24T04:01:17.388Z,78.26
2019-01-24T04:03:43.758Z,78.29
2019-01-24T04:06:10.014Z,78.63
2019-01-24T04:08:36.365Z,77.88
2019-01-24T04:11:02.948Z,78.16
2019-01-24T04:13:29.369Z,78.19
2019-01-24T04:15:55.683Z,77.75
2019-01-24T04:18:21.962Z,78.90
2019-01-24T04:20:48.231Z,78.42
2019-01-24T04:23:14.516Z,77.91
2019-01-24T04:25:40.799Z,77.76
2019-01-24T04:28:07.167Z,78.56
2019-01-24T04:33:57.126Z,79.09
2019-01-24T04:36:23.391Z,78.56
2019-01-24T04:38:49.750Z,79.15
2019-01-24T04:41:16.071Z,79.45
2019-01-24T04:43:42.387Z,79.00
2019-01-24T04:46:08.614Z,78.82
2019-01-24T04:48:35.028Z,79.24
2019-01-24T04:51:01.238Z,79.48
2019-01-24T04:53:27.470Z,79.48
2019-01-24T04:55:53.799Z,79.23
2019-01-24T04:58:20.051Z,78.81
2019-01-24T05:00:46.486Z,78.77
2019-01-24T05:03:12.724Z,78.92
2019-01-24T05:05:39.173Z,78.29
2019-01-24T05:08:05.493Z,77.33
2019-01-24T05:10:31.804Z,77.58
2019-01-24T05:12:58.945Z,78.24
2019-01-24T05:15:25.797Z,77.51
2019-01-24T05:17:52.211Z,77.62
2019-01-24T05:20:18.696Z,78.21
2019-01-24T05:22:44.991Z,78.43
2019-01-24T05:25:13.782Z,78.35
2019-01-24T05:27:40.198Z,78.36
2019-01-24T05:30:21.408Z,78.10
2019-01-24T05:32:48.088Z,77.69
2019-01-24T05:35:14.520Z,76.97
2019-01-24T05:37:41.046Z,77.01
2019-01-24T05:40:08.936Z,77.77
2019-01-24T05:42:35.087Z,77.58
2019-01-24T05:45:01.418Z,77.87
2019-01-24T05:47:28.055Z,78.10
2019-01-24T05:49:54.277Z,78.06
2019-01-24T05:52:20.632Z,77.68
2019-01-24T05:54:47.063Z,77.22
2019-01-24T05:57:13.389Z,77.45
2019-01-24T05:59:39.546Z,77.50
2019-01-24T06:02:05.769Z,77.34
2019-01-24T06:04:32.397Z,77.16
2019-01-24T06:06:58.826Z,77.13
2019-01-24T06:09:25.148Z,77.19
2019-01-24T06:11:51.463Z,77.39
2019-01-24T06:14:17.716Z,77.20
2019-01-24T06:16:44.071Z,76.89
2019-01-24T06:19:10.617Z,76.81
2019-01-24T06:21:37.022Z,77.45
2019-01-24T06:24:03.540Z,77.62
2019-01-24T06:26:29.905Z,77.70
2019-01-24T06:28:56.215Z,77.40
2019-01-24T06:31:22.448Z,77.15
2019-01-24T06:33:48.668Z,77.44
2019-01-24T06:36:15.056Z,77.37
2019-01-24T06:38:41.259Z,76.90
2019-01-24T06:41:07.483Z,76.20
2019-01-24T06:43:33.792Z,76.77
2019-01-24T06:46:00.554Z,77.02
2019-01-24T06:48:27.099Z,77.32
2019-01-24T06:50:53.530Z,77.39
2019-01-24T06:53:19.786Z,77.57
2019-01-24T06:55:46.128Z,76.76
2019-01-24T06:58:12.486Z,76.12
2019-01-24T07:00:38.911Z,76.35
2019-01-24T07:03:05.305Z,75.42
2019-01-24T07:05:31.793Z,76.10
2019-01-24T07:07:58.108Z,76.38
2019-01-24T07:10:24.474Z,75.60
2019-01-24T07:12:50.986Z,76.39
2019-01-24T07:15:20.083Z,75.54
2019-01-24T07:17:47.208Z,76.16
2019-01-24T07:20:16.329Z,76.62
2019-01-24T07:22:43.366Z,76.53
2019-01-24T07:25:13.625Z,76.55
2019-01-24T07:27:40.639Z,78.13
2019-01-24T07:30:10.266Z,77.68
2019-01-24T07:32:36.649Z,76.43
2019-01-24T07:35:07.150Z,75.76
2019-01-24T07:37:33.470Z,83.66
2019-01-24T07:39:59.892Z,79.74
2019-01-24T07:42:26.658Z,75.37
2019-01-24T07:44:52.918Z,74.67
2019-01-24T07:47:21.392Z,74.98
2019-01-24T07:49:47.602Z,74.95
2019-01-24T07:55:14.309Z,75.52
2019-01-24T07:57:41.429Z,75.47
2019-01-24T08:00:19.884Z,75.65
2019-01-24T08:02:46.345Z,75.10
2019-01-24T08:05:13.877Z,75.40
2019-01-24T08:07:40.266Z,75.28
2019-01-24T08:10:09.944Z,75.54
2019-01-24T08:12:36.199Z,75.19
2019-01-24T08:15:05.480Z,75.13
2019-01-24T08:17:32.019Z,74.82
2019-01-24T08:19:58.257Z,75.35
2019-01-24T08:22:24.742Z,75.54
2019-01-24T08:24:51.142Z,75.62
2019-01-24T08:27:17.393Z,75.09
2019-01-24T08:29:43.678Z,75.12
2019-01-24T08:32:10.347Z,75.01
2019-01-24T08:34:36.712Z,75.17
2019-01-24T08:37:03.628Z,75.19
2019-01-24T08:39:30.462Z,74.79
2019-01-24T08:41:56.886Z,75.14
2019-01-24T08:44:23.319Z,75.16
2019-01-24T08:46:49.603Z,74.86
2019-01-24T08:49:16.028Z,75.01
2019-01-24T08:51:42.356Z,75.35
2019-01-24T08:54:08.626Z,75.03
2019-01-24T08:56:35.003Z,75.13
2019-01-24T08:59:01.405Z,75.08
2019-01-24T09:01:27.719Z,75.04
2019-01-24T09:03:54.058Z,74.95
2019-01-24T09:06:22.690Z,74.40
2019-01-24T09:08:48.704Z,74.14
2019-01-24T09:11:14.917Z,74.55
2019-01-24T09:13:41.255Z,74.21
2019-01-24T09:16:07.802Z,74.51
2019-01-24T09:18:34.356Z,74.31
2019-01-24T09:21:00.708Z,74.48
2019-01-24T09:23:27.287Z,74.27
2019-01-24T09:25:53.690Z,73.95
2019-01-24T09:28:20.129Z,73.37
2019-01-24T09:30:46.436Z,73.52
2019-01-24T09:33:12.783Z,73.83
2019-01-24T09:35:39.127Z,73.94
2019-01-24T09:38:05.601Z,73.56
2019-01-24T09:40:32.777Z,73.73
2019-01-24T09:42:59.192Z,73.49
2019-01-24T09:45:27.708Z,73.59
2019-01-24T09:47:58.979Z,73.22
2019-01-24T09:50:27.914Z,72.88
2019-01-24T09:52:54.526Z,72.67
2019-01-24T09:55:21.139Z,72.47
2019-01-24T09:57:47.575Z,72.66
2019-01-24T10:00:19.577Z,72.77
2019-01-24T10:02:46.168Z,72.82
2019-01-24T10:05:13.162Z,72.93
2019-01-24T10:07:39.735Z,73.10
2019-01-24T10:10:18.970Z,73.47
2019-01-24T10:12:45.270Z,72.87
2019-01-24T10:15:14.260Z,73.50
2019-01-24T10:17:40.824Z,73.46
2019-01-24T10:20:11.141Z,73.02
2019-01-24T10:22:37.579Z,73.02
2019-01-24T10:25:08.044Z,73.36
2019-01-24T10:27:34.665Z,72.86
2019-01-24T10:30:01.191Z,73.08
2019-01-24T10:32:27.435Z,72.98
2019-01-24T10:34:53.703Z,72.16
2019-01-24T10:37:20.076Z,72.37
2019-01-24T10:39:46.438Z,71.75
2019-01-24T10:42:12.748Z,72.17
2019-01-24T10:44:40.169Z,72.15
2019-01-24T10:47:06.460Z,72.14
2019-01-24T10:49:32.928Z,72.50
2019-01-24T10:51:59.666Z,72.11
2019-01-24T10:54:26.042Z,72.19
2019-01-24T10:56:53.151Z,71.87
2019-01-24T10:59:19.524Z,71.78
2019-01-24T11:01:45.773Z,72.43
2019-01-24T11:04:12.213Z,72.15
2019-01-24T11:06:38.709Z,71.67
2019-01-24T11:09:07.421Z,71.30
2019-01-24T11:11:34.052Z,71.38
2019-01-24T11:14:01.126Z,71.32
2019-01-24T11:16:27.564Z,70.88
2019-01-24T11:18:54.009Z,71.39
2019-01-24T11:21:20.406Z,71.85
2019-01-24T11:23:46.767Z,71.63
2019-01-24T11:26:13.858Z,71.87
2019-01-24T11:28:40.396Z,71.40
2019-01-24T11:31:06.931Z,71.37
2019-01-24T11:33:33.268Z,70.85
2019-01-24T11:35:59.822Z,71.81
2019-01-24T11:38:26.153Z,72.27
2019-01-24T11:40:52.486Z,72.12
2019-01-24T11:43:18.956Z,72.45
2019-01-24T11:45:45.558Z,72.54
2019-01-24T11:48:11.986Z,71.47
2019-01-24T11:50:38.380Z,70.92
2019-01-24T11:53:04.852Z,74.19
2019-01-24T11:55:31.624Z,72.47
2019-01-24T11:57:57.824Z,72.08
2019-01-24T12:00:37.149Z,75.94
2019-01-24T12:03:05.178Z,71.25
2019-01-24T12:05:31.571Z,69.98
2019-01-24T12:07:57.985Z,70.02
2019-01-24T12:10:25.961Z,69.85
2019-01-24T12:12:52.345Z,71.43
2019-01-24T12:15:23.787Z,70.63
2019-01-24T12:17:50.275Z,71.27
2019-01-24T12:20:21.523Z,72.59
2019-01-24T12:22:48.208Z,71.06
2019-01-24T12:25:14.803Z,73.29
2019-01-24T12:27:41.142Z,73.29
2019-01-24T12:30:14.047Z,71.53
2019-01-24T12:32:40.410Z,71.80
2019-01-24T12:35:08.361Z,70.11
2019-01-24T12:37:34.656Z,71.58
2019-01-24T12:40:01.493Z,72.23
2019-01-24T12:42:28.051Z,71.85
2019-01-24T12:44:54.470Z,71.66
2019-01-24T12:47:20.790Z,70.44
2019-01-24T12:49:47.028Z,67.62
2019-01-24T12:52:13.289Z,70.26
2019-01-24T12:54:39.572Z,69.51
2019-01-24T12:57:05.935Z,68.47
2019-01-24T12:59:32.310Z,68.52
2019-01-24T13:01:58.767Z,69.22
2019-01-24T13:04:25.082Z,68.02
2019-01-24T13:06:51.369Z,68.75
2019-01-24T13:09:17.786Z,68.79
2019-01-24T13:11:44.104Z,69.99
2019-01-24T13:14:10.444Z,67.72
2019-01-24T13:16:36.700Z,67.33
2019-01-24T13:19:03.125Z,67.11
2019-01-24T13:21:29.428Z,69.08
2019-01-24T13:23:55.750Z,69.37
2019-01-24T13:26:22.429Z,67.60
2019-01-24T13:28:48.803Z,68.07
2019-01-24T13:31:15.266Z,66.76
2019-01-24T13:33:41.643Z,68.98
2019-01-24T13:36:08.169Z,68.42
2019-01-24T13:38:34.507Z,67.43
2019-01-24T13:41:01.072Z,66.73
2019-01-24T13:43:27.405Z,67.73
2019-01-24T13:45:53.726Z,68.50
2019-01-24T13:48:20.037Z,68.04
2019-01-24T13:50:46.325Z,69.31
2019-01-24T13:53:12.833Z,68.94
2019-01-24T13:55:39.606Z,69.74
2019-01-24T13:58:06.485Z,67.16
2019-01-24T14:00:34.441Z,67.27
2019-01-24T14:03:08.002Z,68.29
2019-01-24T14:05:34.315Z,67.75
2019-01-24T14:08:00.691Z,70.07
2019-01-24T14:10:27.003Z,66.16
2019-01-24T14:12:53.273Z,68.73
2019-01-24T14:15:19.675Z,67.87
2019-01-24T14:17:46.039Z,68.57
2019-01-24T14:20:19.525Z,68.19
2019-01-24T14:22:45.866Z,67.38
2019-01-24T14:25:17.025Z,65.28
2019-01-24T14:27:43.568Z,66.77
2019-01-24T14:30:19.151Z,66.46
2019-01-24T14:32:45.806Z,67.15
2019-01-24T14:35:12.560Z,66.71
2019-01-24T14:37:39.916Z,67.62
2019-01-24T14:40:09.434Z,67.74
2019-01-24T14:42:35.706Z,65.70
2019-01-24T14:45:04.021Z,65.60
2019-01-24T14:47:30.396Z,66.29
2019-01-24T14:49:56.877Z,65.76
2019-01-24T14:52:23.305Z,66.45
2019-01-24T14:54:49.785Z,66.41
2019-01-24T14:57:16.000Z,67.43
2019-01-24T14:59:42.511Z,67.21
2019-01-24T15:02:09.174Z,65.99
2019-01-24T15:04:35.726Z,65.42
2019-01-24T15:07:05.258Z,66.98
2019-01-24T15:09:31.680Z,65.93
2019-01-24T15:11:58.017Z,68.50
2019-01-24T15:14:24.276Z,67.41
2019-01-24T15:16:50.535Z,69.31
2019-01-24T15:19:16.784Z,67.76
2019-01-24T15:21:43.396Z,67.15
2019-01-24T15:24:09.906Z,66.65
2019-01-24T15:26:36.588Z,65.99
2019-01-24T15:29:04.158Z,67.69
2019-01-24T15:31:31.024Z,67.20
2019-01-24T15:33:58.464Z,68.07
2019-01-24T15:36:25.053Z,67.72
2019-01-24T15:38:51.710Z,66.72
2019-01-24T15:41:18.467Z,66.70
2019-01-24T15:43:45.122Z,67.14
2019-01-24T15:46:11.869Z,68.26
2019-01-24T15:48:42.488Z,67.73
2019-01-24T15:51:06.825Z,67.25
2019-01-24T15:53:33.422Z,67.98
2019-01-24T15:55:59.857Z,67.79
2019-01-24T15:58:26.355Z,67.59
2019-01-24T16:00:52.730Z,72.71
2019-01-24T16:03:19.269Z,71.95
2019-01-24T16:05:45.641Z,69.80
2019-01-24T16:08:12.084Z,68.45
2019-01-24T16:10:38.586Z,67.37
2019-01-24T16:13:05.001Z,67.28
2019-01-24T16:15:33.560Z,67.73
2019-01-24T16:18:00.071Z,68.54
2019-01-24T16:20:28.099Z,67.74
2019-01-24T16:22:54.620Z,67.47
2019-01-24T16:25:30.201Z,68.60
2019-01-24T16:27:56.707Z,68.10
2019-01-24T16:30:25.592Z,67.03
2019-01-24T16:32:51.996Z,66.67
2019-01-24T16:35:19.816Z,67.51
2019-01-24T16:37:46.265Z,69.41
2019-01-24T16:40:18.914Z,68.05
2019-01-24T16:42:45.384Z,67.26
2019-01-24T16:45:17.308Z,66.41
2019-01-24T16:47:45.646Z,66.92
2019-01-24T16:50:14.738Z,65.99
2019-01-24T16:52:43.706Z,66.99
2019-01-24T16:55:12.476Z,67.50
2019-01-24T16:57:38.806Z,67.49
2019-01-24T17:00:24.360Z,68.01
2019-01-24T17:02:50.764Z,68.24
2019-01-24T17:05:17.354Z,67.65
2019-01-24T17:07:43.713Z,69.50
2019-01-24T17:10:25.859Z,68.54
2019-01-24T17:12:52.385Z,67.43
2019-01-24T17:15:18.954Z,66.48
2019-01-24T17:17:45.468Z,66.94
2019-01-24T17:20:18.449Z,66.93
2019-01-24T17:22:51.987Z,67.51
2019-01-24T17:25:19.522Z,66.93
2019-01-24T17:27:46.589Z,67.57
2019-01-24T17:30:19.338Z,67.40
2019-01-24T17:32:45.961Z,67.67
2019-01-24T17:35:32.050Z,68.27
2019-01-24T17:38:13.045Z,68.25
2019-01-24T17:40:43.573Z,67.56
2019-01-24T17:43:10.438Z,67.76
2019-01-24T17:45:36.760Z,67.57
2019-01-24T17:48:04.805Z,68.01
2019-01-24T17:50:31.690Z,68.34
2019-01-24T17:52:58.153Z,67.86
2019-01-24T17:55:27.951Z,68.99
2019-01-24T17:57:55.710Z,68.57
2019-01-24T18:00:27.401Z,67.92
2019-01-24T18:06:29.335Z,66.79
2019-01-24T18:08:56.396Z,67.88
2019-01-24T18:11:23.146Z,68.99
2019-01-24T18:13:49.487Z,69.24
2019-01-24T18:16:17.515Z,69.41
2019-01-24T18:18:43.927Z,70.11
2019-01-24T18:24:33.696Z,72.48
2019-01-24T18:30:20.071Z,71.98
2019-01-24T18:32:47.557Z,74.17
2019-01-24T18:35:14.209Z,74.98
2019-01-24T18:37:42.420Z,75.46
2019-01-24T18:40:13.068Z,75.88
2019-01-24T18:42:39.858Z,76.19
2019-01-24T18:45:15.959Z,77.05
2019-01-24T18:47:42.600Z,77.20
2019-01-24T18:50:32.387Z,76.74
2019-01-24T18:53:02.536Z,76.47
2019-01-24T18:55:29.019Z,76.77
2019-01-24T18:57:55.448Z,76.74
2019-01-24T19:00:25.580Z,76.19
2019-01-24T19:02:51.865Z,77.02
2019-01-24T19:05:18.136Z,77.70
2019-01-24T19:07:44.333Z,77.04
2019-01-24T19:10:12.459Z,77.37
2019-01-24T19:16:14.926Z,76.85
2019-01-24T19:18:41.304Z,76.88
2019-01-24T19:21:07.623Z,77.32
2019-01-24T19:23:34.004Z,76.63
2019-01-24T19:26:00.367Z,76.87
2019-01-24T19:28:26.724Z,76.59
2019-01-24T19:30:53.016Z,76.94
2019-01-24T19:36:42.697Z,82.27
2019-01-24T19:39:09.292Z,78.42
2019-01-24T19:41:37.027Z,76.26
2019-01-24T19:47:27.002Z,76.31
2019-01-24T19:49:53.293Z,76.23
2019-01-24T19:52:19.594Z,83.03
2019-01-24T19:54:45.859Z,81.67
2019-01-24T19:57:12.074Z,78.31
2019-01-24T19:59:38.504Z,78.03
2019-01-24T20:02:04.922Z,78.85
2019-01-24T20:04:31.162Z,78.99
2019-01-24T20:06:57.362Z,78.72
2019-01-24T20:09:23.707Z,79.18
2019-01-24T20:11:49.822Z,79.15
2019-01-24T20:14:16.036Z,77.83
2019-01-24T20:16:42.357Z,79.10
2019-01-24T20:19:08.519Z,78.34
2019-01-24T20:21:34.861Z,78.61
2019-01-24T20:24:01.047Z,78.26
2019-01-24T20:26:27.331Z,77.94
2019-01-24T20:28:53.524Z,77.94
2019-01-24T20:31:19.771Z,77.67
2019-01-24T20:33:46.192Z,77.46
2019-01-24T20:39:36.435Z,77.67
2019-01-24T20:42:02.769Z,78.05
2019-01-24T20:44:28.983Z,78.76
2019-01-24T20:50:18.996Z,79.38
2019-01-24T20:52:45.310Z,79.77
2019-01-24T20:55:15.448Z,78.56
2019-01-24T20:57:41.756Z,78.30
2019-01-24T21:00:14.142Z,78.65
2019-01-24T21:02:40.479Z,78.90
2019-01-24T21:05:08.807Z,79.33
2019-01-24T21:07:35.541Z,79.20
2019-01-24T21:10:03.929Z,79.03
2019-01-24T21:12:30.310Z,78.50
2019-01-24T21:14:56.454Z,78.35
2019-01-24T21:17:22.745Z,77.55
2019-01-24T21:19:50.220Z,78.37
2019-01-24T21:22:16.449Z,78.32
2019-01-24T21:24:42.802Z,78.16
2019-01-24T21:27:09.041Z,78.61
2019-01-24T21:29:35.324Z,78.98
2019-01-24T21:32:01.570Z,79.12
2019-01-24T21:34:27.909Z,78.66
2019-01-24T21:36:54.124Z,79.55
2019-01-24T21:39:22.357Z,79.00
2019-01-24T21:41:48.314Z,78.32
2019-01-24T21:44:14.458Z,78.60
2019-01-24T21:46:40.683Z,81.63
2019-01-24T21:49:06.926Z,79.64
2019-01-24T21:51:33.253Z,80.20
2019-01-24T21:53:59.458Z,78.38
2019-01-24T21:56:25.696Z,78.41
2019-01-24T21:58:52.347Z,78.41
2019-01-24T22:04:42.400Z,78.91
2019-01-24T22:07:08.644Z,78.52
2019-01-24T22:09:34.821Z,79.54
2019-01-24T22:15:15.233Z,79.61
2019-01-24T22:17:41.603Z,79.77
2019-01-24T22:20:10.004Z,79.85
2019-01-24T22:22:36.292Z,79.54
2019-01-24T22:25:06.191Z,78.63
2019-01-24T22:27:32.486Z,77.93
2019-01-24T22:29:58.688Z,78.22
2019-01-24T22:32:25.405Z,78.04
2019-01-24T22:34:51.773Z,77.83
2019-01-24T22:37:18.247Z,78.16
2019-01-24T22:39:44.522Z,78.45
2019-01-24T22:42:10.778Z,78.96
2019-01-24T22:44:37.010Z,78.21
2019-01-24T22:47:03.768Z,77.46
2019-01-24T22:49:31.288Z,78.77
2019-01-24T22:51:57.758Z,79.05
2019-01-24T22:54:23.918Z,78.14
2019-01-24T22:56:50.081Z,78.61
2019-01-24T22:59:16.361Z,77.88
2019-01-24T23:01:43.024Z,78.27
2019-01-24T23:04:09.448Z,78.69
2019-01-24T23:06:35.629Z,79.73
2019-01-24T23:09:01.910Z,79.63
2019-01-24T23:11:28.333Z,79.08
2019-01-24T23:13:54.573Z,79.30
2019-01-24T23:16:20.824Z,78.49
2019-01-24T23:18:50.131Z,79.91
2019-01-24T23:21:16.665Z,80.03
2019-01-24T23:23:42.994Z,79.93
2019-01-24T23:26:09.461Z,80.06
2019-01-24T23:28:35.680Z,80.43
2019-01-24T23:31:02.093Z,81.08
2019-01-24T23:33:28.555Z,79.34
2019-01-24T23:35:55.263Z,79.70
2019-01-24T23:38:21.461Z,79.00
2019-01-24T23:40:47.917Z,79.18
2019-01-24T23:43:14.206Z,79.54
2019-01-24T23:45:40.531Z,79.25
2019-01-24T23:48:06.766Z,79.09
2019-01-24T23:50:33.155Z,78.79
2019-01-24T23:52:59.443Z,80.03
2019-01-24T23:55:25.760Z,80.19
2019-01-24T23:57:51.940Z,79.85
